Time;durP1;ratioP1;P1;durP2;ratioP2;P2;SDS_P1;SDS_P2;PMS_P1;PMS_P2;Temp;Humidity;BMP_temperature;BMP_pressure;BME280_temperature;BME280_humidity;BME280_pressure;Samples;Min_cycle;Max_cycle;Signal;HPM_P1;HPM_P2
2022/08/23 00:02:00;;;;;;;6.70;2.60;;;;;18.30;96965.00;;;;110499;1252;41350;-72
2022/08/23 00:04:33;;;;;;;7.00;2.40;;;;;18.22;96961.00;;;;110647;1252;41815;-71
2022/08/23 00:07:05;;;;;;;8.80;3.40;;;;;18.20;96959.00;;;;110429;1254;42552;-71
2022/08/23 00:09:35;;;;;;;8.30;3.10;;;;;18.12;96959.60;;;;110394;1252;41258;-70
2022/08/23 00:12:08;;;;;;;8.40;3.70;;;;;18.06;96964.20;;;;110437;1253;41177;-71
2022/08/23 00:14:42;;;;;;;7.10;3.30;;;;;18.00;96961.40;;;;110525;1254;41458;-71
2022/08/23 00:17:13;;;;;;;5.90;2.60;;;;;17.94;96969.00;;;;110525;1252;42558;-72
2022/08/23 00:19:53;;;;;;;9.20;3.40;;;;;17.90;96970.00;;;;110481;1252;41169;-71
2022/08/23 00:22:24;;;;;;;10.30;3.80;;;;;17.90;96971.00;;;;110522;1254;42005;-72
2022/08/23 00:24:53;;;;;;;7.40;2.90;;;;;17.90;96966.20;;;;110466;1253;41278;-72
2022/08/23 00:27:23;;;;;;;7.80;2.50;;;;;17.90;96955.00;;;;110466;1254;41142;-72
2022/08/23 00:29:54;;;;;;;5.40;2.40;;;;;17.90;96950.00;;;;110513;1252;41162;-72
2022/08/23 00:32:25;;;;;;;;;;;;;17.90;96951.20;;;;110546;1252;41531;-72
2022/08/23 00:34:55;;;;;;;5.70;2.30;;;;;17.90;96950.20;;;;110542;1252;41280;-72
2022/08/23 00:37:25;;;;;;;5.10;2.10;;;;;17.86;96952.20;;;;110460;1252;41272;-72
2022/08/23 00:39:56;;;;;;;6.20;2.40;;;;;17.80;96950.40;;;;110459;1254;42693;-71
2022/08/23 00:48:23;;;;;;;8.80;3.60;;;;;17.90;96957.40;;;;110541;1254;41275;-72
2022/08/23 00:50:54;;;;;;;7.50;3.00;;;;;17.90;96959.00;;;;110515;1252;41162;-71
2022/08/23 00:53:27;;;;;;;6.50;2.50;;;;;17.80;96963.00;;;;110509;1252;41622;-71
2022/08/23 00:56:00;;;;;;;7.10;2.90;;;;;17.80;96969.60;;;;110545;1252;41188;-71
2022/08/23 00:58:31;;;;;;;5.50;2.50;;;;;17.80;96971.60;;;;110514;1252;41742;-72
2022/08/23 01:01:02;;;;;;;8.50;2.50;;;;;17.80;96967.20;;;;110481;1252;41153;-72
2022/08/23 01:03:34;;;;;;;7.20;2.70;;;;;17.80;96963.20;;;;110540;1253;41162;-72
2022/08/23 01:06:13;;;;;;;8.00;3.50;;;;;17.80;96966.40;;;;110568;1252;42479;-72
2022/08/23 01:08:47;;;;;;;10.20;3.30;;;;;17.70;96968.20;;;;110635;1251;41159;-72
2022/08/23 01:11:36;;;;;;;7.10;2.80;;;;;17.68;96963.80;;;;110420;1252;41277;-72
2022/08/23 01:14:16;;;;;;;7.10;2.70;;;;;17.64;96971.60;;;;110606;1251;42486;-72
2022/08/23 01:16:52;;;;;;;6.00;2.60;;;;;17.60;96973.80;;;;110584;1252;41858;-71
2022/08/23 01:19:34;;;;;;;6.80;2.60;;;;;17.60;96973.60;;;;110575;1252;41278;-72
2022/08/23 01:22:33;;;;;;;5.80;2.50;;;;;17.60;96972.60;;;;110683;1250;41650;-68
2022/08/23 01:25:09;;;;;;;9.10;3.50;;;;;17.60;96971.40;;;;110603;1251;41157;-71
2022/08/23 01:27:44;;;;;;;8.90;3.40;;;;;17.60;96977.20;;;;110719;1252;41723;-71
2022/08/23 01:30:21;;;;;;;5.80;2.70;;;;;17.50;96976.00;;;;110642;1252;41163;-72
2022/08/23 01:32:54;;;;;;;7.10;3.20;;;;;17.50;96983.20;;;;110597;1249;41143;-71
2022/08/23 01:35:38;;;;;;;7.80;3.20;;;;;17.40;96983.80;;;;110654;1249;41258;-72
2022/08/23 01:38:09;;;;;;;6.80;2.90;;;;;17.40;96985.60;;;;110593;1250;41303;-72
2022/08/23 01:40:40;;;;;;;9.00;2.70;;;;;17.40;96990.20;;;;110838;1250;41207;-72
2022/08/23 01:43:11;;;;;;;5.70;2.30;;;;;17.40;96987.40;;;;110602;1252;41161;-72
2022/08/23 01:45:42;;;;;;;6.50;2.60;;;;;17.40;96982.80;;;;110593;1252;41276;-72
2022/08/23 01:48:15;;;;;;;5.60;2.40;;;;;17.40;96979.40;;;;110613;1252;41830;-72
2022/08/23 01:50:46;;;;;;;6.40;2.30;;;;;17.40;96985.00;;;;110707;1249;42422;-72
2022/08/23 01:53:17;;;;;;;6.70;2.50;;;;;17.40;96981.40;;;;110528;1252;41130;-72
2022/08/23 01:55:50;;;;;;;7.20;2.70;;;;;17.40;96983.40;;;;110606;1249;41252;-72
2022/08/23 01:58:21;;;;;;;4.90;2.10;;;;;17.40;96981.40;;;;110551;1252;42366;-72
2022/08/23 02:00:52;;;;;;;7.00;2.50;;;;;17.40;96985.00;;;;110655;1250;42371;-72
2022/08/23 02:03:23;;;;;;;7.20;2.20;;;;;17.40;96983.80;;;;110634;1251;41262;-72
2022/08/23 02:05:52;;;;;;;8.00;2.90;;;;;17.40;96988.20;;;;110756;1252;41307;-71
2022/08/23 02:11:15;;;;;;;10.70;4.40;;;;;17.40;97000.60;;;;110607;1252;41172;-72
2022/08/23 02:13:48;;;;;;;8.70;3.30;;;;;17.30;97003.00;;;;110811;1252;41974;-72
2022/08/23 02:16:26;;;;;;;11.40;3.40;;;;;17.30;96998.20;;;;110691;1252;41156;-71
2022/08/23 02:18:57;;;;;;;9.40;3.60;;;;;17.20;97008.00;;;;110802;1252;41295;-71
2022/08/23 02:21:32;;;;;;;25.40;4.00;;;;;17.10;97001.60;;;;110796;1252;41846;-71
2022/08/23 02:24:07;;;;;;;8.90;3.50;;;;;17.10;97004.40;;;;110797;1250;41155;-71
2022/08/23 02:26:39;;;;;;;7.30;2.90;;;;;17.08;97004.40;;;;110599;1252;41149;-71
2022/08/23 02:29:09;;;;;;;10.00;3.40;;;;;17.08;97009.80;;;;110589;1252;41267;-71
2022/08/23 02:31:46;;;;;;;6.80;2.90;;;;;17.10;97011.40;;;;110631;1251;41198;-71
2022/08/23 02:34:17;;;;;;;6.30;2.50;;;;;17.10;97013.00;;;;110803;1249;41261;-71
2022/08/23 02:36:49;;;;;;;9.30;3.70;;;;;17.10;97020.60;;;;110607;1252;41162;-70
2022/08/23 02:39:19;;;;;;;7.90;3.10;;;;;17.10;97019.60;;;;110628;1252;41490;-72
2022/08/23 02:41:50;;;;;;;7.90;2.90;;;;;17.10;97017.00;;;;110746;1252;41641;-71
2022/08/23 02:44:21;;;;;;;6.70;2.50;;;;;17.10;97021.20;;;;110683;1249;41334;-71
2022/08/23 02:46:51;;;;;;;7.20;2.80;;;;;17.10;97014.60;;;;110612;1252;41609;-71
2022/08/23 02:49:22;;;;;;;5.40;2.20;;;;;17.10;97018.80;;;;110603;1251;41268;-71
2022/08/23 02:51:52;;;;;;;6.10;2.60;;;;;17.10;97018.20;;;;110632;1252;41264;-71
2022/08/23 02:54:22;;;;;;;7.70;3.00;;;;;17.10;97023.40;;;;110598;1252;41300;-71
2022/08/23 02:56:53;;;;;;;9.30;3.60;;;;;17.10;97023.00;;;;110670;1252;41157;-71
2022/08/23 02:59:24;;;;;;;9.70;4.10;;;;;17.10;97024.60;;;;110757;1252;41271;-71
2022/08/23 03:01:53;;;;;;;9.50;3.80;;;;;17.00;97026.60;;;;110611;1252;41874;-71
2022/08/23 03:04:28;;;;;;;9.30;3.70;;;;;16.82;97030.20;;;;110696;1251;41380;-71
2022/08/23 03:06:58;;;;;;;;;;;;;16.80;97031.40;;;;110806;1251;42230;-71
2022/08/23 03:09:29;;;;;;;13.90;4.20;;;;;16.70;97030.60;;;;110594;1251;41713;-71
2022/08/23 03:12:01;;;;;;;9.40;3.50;;;;;16.70;97030.20;;;;110743;1252;41142;-71
2022/08/23 03:14:34;;;;;;;13.30;3.50;;;;;16.70;97041.40;;;;110547;1252;41262;-71
2022/08/23 03:17:05;;;;;;;9.40;3.50;;;;;16.70;97044.80;;;;110757;1251;41808;-71
2022/08/23 03:19:36;;;;;;;10.90;3.80;;;;;16.70;97048.00;;;;110539;1252;41154;-71
2022/08/23 03:22:09;;;;;;;38.60;5.00;;;;;16.70;97046.40;;;;110839;1250;41143;-71
2022/08/23 03:24:39;;;;;;;;;;;;;16.70;97053.60;;;;110638;1251;41151;-71
2022/08/23 03:27:10;;;;;;;15.10;3.70;;;;;16.60;97056.20;;;;110611;1251;41449;-71
2022/08/23 03:29:41;;;;;;;8.20;3.10;;;;;16.60;97065.60;;;;110558;1251;41732;-71
2022/08/23 03:32:12;;;;;;;8.60;3.40;;;;;16.60;97069.40;;;;110835;1250;41953;-71
2022/08/23 03:34:44;;;;;;;8.30;3.10;;;;;16.62;97068.60;;;;110538;1252;41186;-71
2022/08/23 03:37:15;;;;;;;;;;;;;16.68;97073.80;;;;110629;1251;41830;-71
2022/08/23 03:39:45;;;;;;;16.10;4.40;;;;;16.68;97081.20;;;;110536;1252;41285;-71
2022/08/23 03:42:15;;;;;;;15.10;4.80;;;;;16.66;97083.60;;;;110541;1252;41218;-72
2022/08/23 03:44:45;;;;;;;26.30;4.80;;;;;16.50;97091.40;;;;110610;1252;42401;-71
2022/08/23 03:47:15;;;;;;;24.40;5.10;;;;;16.48;97093.60;;;;110530;1252;41620;-71
2022/08/23 03:49:45;;;;;;;22.00;4.70;;;;;16.46;97096.40;;;;110580;1252;41188;-71
2022/08/23 03:52:15;;;;;;;33.20;4.40;;;;;16.40;97095.20;;;;110670;1252;41355;-71
2022/08/23 03:54:46;;;;;;;16.80;3.60;;;;;16.38;97101.80;;;;110604;1252;42552;-71
2022/08/23 03:57:16;;;;;;;12.20;4.30;;;;;16.30;97104.40;;;;110671;1250;41275;-72
2022/08/23 03:59:47;;;;;;;11.40;3.70;;;;;16.40;97109.20;;;;110621;1252;41697;-72
2022/08/23 04:02:17;;;;;;;9.50;3.50;;;;;16.40;97113.00;;;;110736;1252;42034;-71
2022/08/23 04:04:47;;;;;;;12.60;3.30;;;;;16.40;97104.80;;;;110669;1252;41381;-71
2022/08/23 04:07:23;;;;;;;6.80;2.80;;;;;16.50;97108.20;;;;110769;1249;41270;-70
2022/08/23 04:09:56;;;;;;;5.30;2.50;;;;;16.60;97111.60;;;;110610;1251;41160;-71
2022/08/23 04:12:28;;;;;;;5.90;2.60;;;;;16.72;97108.80;;;;110690;1249;41863;-71
2022/08/23 04:14:58;;;;;;;5.30;2.20;;;;;16.90;97100.60;;;;110570;1252;41184;-71
2022/08/23 04:17:30;;;;;;;6.60;2.50;;;;;17.10;97090.20;;;;110596;1252;41164;-71
2022/08/23 04:20:02;;;;;;;6.10;2.50;;;;;17.34;97092.00;;;;110782;1252;41432;-71
2022/08/23 04:22:32;;;;;;;6.80;2.90;;;;;17.50;97108.40;;;;110644;1251;41258;-71
2022/08/23 04:25:04;;;;;;;8.20;3.60;;;;;17.60;97115.60;;;;110646;1251;41204;-71
2022/08/23 04:27:53;;;;;;;6.70;2.60;;;;;17.60;97117.00;;;;110776;1251;41161;-71
2022/08/23 04:30:23;;;;;;;7.60;2.50;;;;;17.70;97112.20;;;;110713;1251;41157;-71
2022/08/23 04:32:53;;;;;;;7.00;2.20;;;;;17.80;97111.20;;;;110650;1252;41155;-72
2022/08/23 04:35:24;;;;;;;6.70;2.30;;;;;17.82;97105.60;;;;110616;1252;41254;-71
2022/08/23 04:37:53;;;;;;;7.50;2.80;;;;;17.90;97112.00;;;;110703;1251;41180;-74
2022/08/23 04:43:11;;;;;;;5.90;2.50;;;;;18.06;97109.80;;;;110784;1250;41206;-71
2022/08/23 04:45:41;;;;;;;8.10;3.20;;;;;18.10;97113.00;;;;110801;1252;41446;-71
2022/08/23 04:48:18;;;;;;;9.80;3.70;;;;;18.20;97115.80;;;;110628;1251;41264;-72
2022/08/23 04:50:49;;;;;;;8.50;3.70;;;;;18.20;97120.20;;;;110676;1252;43024;-71
2022/08/23 04:53:19;;;;;;;7.50;3.30;;;;;18.20;97117.60;;;;109258;1252;1880889;-70
2022/08/23 04:55:56;;;;;;;5.90;2.60;;;;;18.26;97116.20;;;;110568;1252;41483;-71
2022/08/23 04:58:26;;;;;;;5.50;2.40;;;;;18.30;97117.60;;;;110536;1252;42087;-71
2022/08/23 05:00:57;;;;;;;6.20;2.60;;;;;18.40;97118.80;;;;110584;1252;41162;-71
2022/08/23 05:03:28;;;;;;;6.50;2.50;;;;;18.50;97114.00;;;;110586;1253;41147;-72
2022/08/23 05:05:59;;;;;;;6.40;2.40;;;;;18.60;97116.40;;;;110562;1253;41478;-72
2022/08/23 05:08:34;;;;;;;6.80;2.20;;;;;18.70;97116.00;;;;110548;1252;41164;-71
2022/08/23 05:11:06;;;;;;;6.40;2.30;;;;;18.80;97112.40;;;;110629;1252;41172;-71
2022/08/23 05:13:36;;;;;;;7.20;3.10;;;;;18.90;97108.80;;;;110756;1251;41180;-71
2022/08/23 05:16:06;;;;;;;;;;;;;19.00;97105.20;;;;110563;1252;41152;-71
2022/08/23 05:18:39;;;;;;;7.80;2.80;;;;;19.00;97109.40;;;;110529;1252;41280;-71
2022/08/23 05:21:14;;;;;;;9.70;2.90;;;;;19.10;97107.00;;;;110583;1252;41199;-71
2022/08/23 05:23:43;;;;;;;8.40;3.10;;;;;19.20;97107.20;;;;110620;1250;41155;-72
2022/08/23 05:26:21;;;;;;;10.40;2.90;;;;;19.30;97108.40;;;;110597;1250;42127;-72
2022/08/23 05:28:51;;;;;;;6.00;2.60;;;;;19.30;97104.00;;;;110640;1250;41159;-72
2022/08/23 05:31:25;;;;;;;8.40;2.80;;;;;19.40;97107.60;;;;110590;1250;41273;-72
2022/08/23 05:33:57;;;;;;;24.10;3.20;;;;;19.42;97106.00;;;;110731;1250;42391;-71
2022/08/23 05:36:48;;;;;;;7.60;3.10;;;;;19.50;97108.60;;;;110652;1251;41158;-71
2022/08/23 05:39:35;;;;;;;6.00;2.40;;;;;19.50;97108.60;;;;110547;1253;41661;-71
2022/08/23 05:42:13;;;;;;;8.20;3.60;;;;;19.60;97111.60;;;;110669;1252;41610;-71
2022/08/23 05:44:42;;;;;;;9.60;3.80;;;;;19.60;97107.40;;;;110375;1251;41265;-72
2022/08/23 05:47:13;;;;;;;8.40;3.60;;;;;19.60;97111.60;;;;110683;1250;41349;-71
2022/08/23 05:50:18;;;;;;;11.80;4.90;;;;;19.60;97116.40;;;;110420;1256;41261;-71
2022/08/23 05:52:47;;;;;;;9.00;3.90;;;;;19.60;97123.40;;;;110864;1251;41160;-70
2022/08/23 05:55:18;;;;;;;10.10;3.80;;;;;19.50;97124.60;;;;110942;1250;41143;-71
2022/08/23 05:57:59;;;;;;;7.10;3.10;;;;;19.40;97128.40;;;;110895;1249;41149;-71
2022/08/23 06:00:28;;;;;;;9.60;4.30;;;;;19.40;97131.80;;;;110663;1252;41745;-71
2022/08/23 06:03:05;;;;;;;9.30;4.40;;;;;19.50;97138.00;;;;110665;1251;41158;-71
2022/08/23 06:05:39;;;;;;;9.10;3.90;;;;;19.50;97146.80;;;;110762;1250;41163;-71
2022/08/23 06:08:08;;;;;;;8.80;3.10;;;;;19.60;97146.20;;;;110566;1252;41722;-71
2022/08/23 06:10:37;;;;;;;8.90;4.20;;;;;19.78;97147.00;;;;110643;1252;41265;-71
2022/08/23 06:13:26;;;;;;;10.30;4.30;;;;;20.04;97151.40;;;;110639;1251;41817;-72
2022/08/23 06:15:56;;;;;;;8.20;3.40;;;;;20.30;97147.00;;;;110741;1251;41494;-71
2022/08/23 06:18:26;;;;;;;9.90;3.70;;;;;20.50;97149.00;;;;110672;1251;41161;-71
2022/08/23 06:21:07;;;;;;;6.00;2.50;;;;;20.72;97151.00;;;;110596;1251;41142;-72
2022/08/23 06:23:45;;;;;;;7.30;3.10;;;;;21.10;97149.00;;;;110707;1250;41598;-72
2022/08/23 06:26:16;;;;;;;12.00;4.00;;;;;21.40;97145.60;;;;110584;1251;41149;-72
2022/08/23 06:28:46;;;;;;;8.40;3.50;;;;;21.60;97145.80;;;;110515;1253;42190;-72
2022/08/23 06:31:44;;;;;;;10.20;3.30;;;;;21.50;97147.00;;;;110581;1252;41167;-71
2022/08/23 06:34:26;;;;;;;7.00;2.80;;;;;21.56;97143.20;;;;110677;1249;41261;-72
2022/08/23 06:37:17;;;;;;;9.20;2.90;;;;;21.90;97152.00;;;;110721;1250;42492;-71
2022/08/23 06:40:08;;;;;;;7.10;3.10;;;;;22.36;97149.00;;;;110842;1250;41158;-72
2022/08/23 06:42:48;;;;;;;8.50;4.00;;;;;22.80;97144.80;;;;110825;1250;41276;-70
2022/08/23 06:45:21;;;;;;;7.80;3.40;;;;;23.58;97139.80;;;;110576;1251;42673;-71
2022/08/23 06:48:01;;;;;;;7.40;3.30;;;;;23.86;97138.80;;;;110712;1250;41197;-72
2022/08/23 06:50:31;;;;;;;;;;;;;24.30;97137.60;;;;110922;1250;42378;-72
2022/08/23 06:53:35;;;;;;;8.50;3.30;;;;;24.70;97139.40;;;;110507;1255;41151;-71
2022/08/23 06:56:35;;;;;;;8.70;3.70;;;;;25.14;97134.60;;;;110597;1250;41164;-73
2022/08/23 06:59:08;;;;;;;8.00;3.50;;;;;25.32;97134.40;;;;110640;1250;41237;-72
2022/08/23 07:02:04;;;;;;;9.20;3.70;;;;;25.64;97135.00;;;;110641;1250;42200;-72
2022/08/23 07:04:54;;;;;;;9.90;3.00;;;;;25.76;97131.40;;;;110563;1250;41634;-73
2022/08/23 07:07:45;;;;;;;8.20;3.80;;;;;25.80;97134.00;;;;110700;1250;41725;-73
2022/08/23 07:10:14;;;;;;;6.40;2.90;;;;;25.80;97133.80;;;;110575;1251;41255;-73
2022/08/23 07:12:43;;;;;;;9.70;3.10;;;;;26.06;97129.40;;;;110584;1251;41145;-73
2022/08/23 07:15:13;;;;;;;10.10;4.40;;;;;26.72;97126.60;;;;110742;1250;41131;-73
2022/08/23 07:17:46;;;;;;;10.50;3.90;;;;;27.24;97125.00;;;;110642;1250;41153;-72
2022/08/23 07:20:15;;;;;;;11.70;3.90;;;;;27.30;97122.80;;;;110591;1250;41272;-73
2022/08/23 07:22:44;;;;;;;9.40;3.80;;;;;27.86;97122.40;;;;110829;1250;41182;-73
2022/08/23 07:25:14;;;;;;;8.50;3.20;;;;;28.30;97124.00;;;;110851;1250;41152;-72
2022/08/23 07:27:47;;;;;;;8.00;3.60;;;;;28.90;97122.40;;;;110688;1250;41447;-74
2022/08/23 07:30:19;;;;;;;9.60;4.40;;;;;29.20;97126.20;;;;110658;1250;41155;-73
2022/08/23 07:32:50;;;;;;;9.60;3.20;;;;;29.40;97124.80;;;;110617;1250;41172;-73
2022/08/23 07:35:23;;;;;;;7.70;3.30;;;;;29.60;97124.60;;;;110641;1249;41155;-73
2022/08/23 07:37:57;;;;;;;9.60;3.40;;;;;29.80;97129.20;;;;110762;1250;41147;-73
2022/08/23 07:40:34;;;;;;;6.10;2.60;;;;;30.00;97126.00;;;;110856;1250;41147;-73
2022/08/23 07:43:08;;;;;;;8.20;3.50;;;;;30.00;97128.00;;;;110683;1250;41363;-72
2022/08/23 07:45:39;;;;;;;8.30;3.10;;;;;30.30;97122.40;;;;110634;1250;41149;-73
2022/08/23 07:48:11;;;;;;;9.90;3.60;;;;;29.88;97126.40;;;;110771;1250;41159;-73
2022/08/23 07:51:04;;;;;;;9.20;3.00;;;;;30.28;97121.40;;;;110739;1250;41159;-75
2022/08/23 07:53:32;;;;;;;12.40;4.20;;;;;30.72;97119.80;;;;110636;1250;41619;-71
2022/08/23 07:56:09;;;;;;;10.20;4.50;;;;;30.54;97115.00;;;;110992;1249;42916;-72
2022/08/23 07:59:02;;;;;;;9.20;3.40;;;;;30.26;97120.20;;;;110624;1250;41365;-74
2022/08/23 08:02:00;;;;;;;10.80;3.90;;;;;29.88;97123.80;;;;110592;1251;41592;-71
2022/08/23 08:04:29;;;;;;;11.10;4.30;;;;;29.60;97127.40;;;;110872;1250;41176;-75
2022/08/23 08:06:59;;;;;;;8.70;3.80;;;;;29.66;97129.60;;;;110536;1250;41431;-73
2022/08/23 08:09:46;;;;;;;12.90;4.20;;;;;29.60;97132.20;;;;110693;1250;41637;-74
2022/08/23 08:12:16;;;;;;;11.90;3.70;;;;;30.12;97128.60;;;;110596;1252;41279;-74
2022/08/23 08:14:47;;;;;;;;;;;;;30.14;97126.40;;;;110556;1252;41905;-73
2022/08/23 08:17:17;;;;;;;14.80;3.80;;;;;30.22;97127.80;;;;110576;1252;41505;-72
2022/08/23 08:20:09;;;;;;;8.50;3.50;;;;;30.10;97135.20;;;;110572;1252;42534;-73
2022/08/23 08:23:04;;;;;;;10.60;3.60;;;;;30.42;97133.40;;;;110570;1251;41352;-73
2022/08/23 08:25:33;;;;;;;10.60;4.10;;;;;30.90;97130.40;;;;110817;1250;41266;-72
2022/08/23 08:28:03;;;;;;;10.00;3.90;;;;;30.42;97130.40;;;;110645;1250;42060;-76
2022/08/23 08:30:32;;;;;;;9.40;4.00;;;;;30.10;97132.00;;;;110678;1251;41219;-72
2022/08/23 08:33:02;;;;;;;9.60;3.70;;;;;30.10;97128.40;;;;110720;1251;41162;-72
2022/08/23 08:35:32;;;;;;;11.60;3.60;;;;;30.40;97129.00;;;;110691;1252;41142;-73
2022/08/23 08:38:02;;;;;;;13.00;4.20;;;;;30.50;97133.60;;;;110603;1251;41170;-73
2022/08/23 08:40:34;;;;;;;9.90;4.30;;;;;30.56;97137.20;;;;110696;1251;41262;-72
2022/08/23 08:43:04;;;;;;;10.50;4.10;;;;;30.86;97136.80;;;;110621;1251;42138;-72
2022/08/23 08:46:01;;;;;;;7.90;2.80;;;;;30.68;97141.60;;;;110664;1249;41172;-73
2022/08/23 08:48:45;;;;;;;11.10;3.40;;;;;31.36;97141.00;;;;110680;1250;41555;-73
2022/08/23 08:51:25;;;;;;;10.80;3.60;;;;;31.94;97140.00;;;;110624;1252;41732;-73
2022/08/23 08:53:55;;;;;;;11.40;3.30;;;;;31.82;97135.00;;;;110547;1253;41404;-72
2022/08/23 08:56:38;;;;;;;9.10;3.20;;;;;31.80;97137.40;;;;110597;1252;42072;-73
2022/08/23 08:59:30;;;;;;;7.30;2.40;;;;;32.20;97138.60;;;;110804;1251;41605;-73
2022/08/23 09:01:59;;;;;;;7.60;2.50;;;;;32.82;97141.60;;;;110676;1251;40784;-73
2022/08/23 09:04:36;;;;;;;7.30;2.20;;;;;33.90;97137.20;;;;110644;1252;41151;-73
2022/08/23 09:07:21;;;;;;;7.80;2.30;;;;;35.08;97132.00;;;;110663;1251;41207;-73
2022/08/23 09:10:12;;;;;;;5.00;1.90;;;;;36.12;97126.80;;;;110624;1251;41733;-75
2022/08/23 09:12:58;;;;;;;5.80;2.40;;;;;37.16;97126.40;;;;110600;1253;41162;-74
2022/08/23 09:15:40;;;;;;;8.50;2.20;;;;;37.70;97123.40;;;;110614;1251;41662;-74
2022/08/23 09:18:12;;;;;;;7.20;2.30;;;;;38.10;97120.60;;;;110626;1253;41268;-74
2022/08/23 09:20:43;;;;;;;7.90;2.30;;;;;38.70;97124.00;;;;110668;1251;41503;-74
2022/08/23 09:23:16;;;;;;;4.00;1.80;;;;;39.10;97114.60;;;;110618;1252;41803;-74
2022/08/23 09:25:59;;;;;;;7.10;2.10;;;;;39.50;97118.40;;;;110765;1250;41775;-73
2022/08/23 09:28:35;;;;;;;9.30;2.70;;;;;39.92;97107.20;;;;110506;1250;41742;-73
2022/08/23 09:31:06;;;;;;;7.00;2.20;;;;;39.86;97104.00;;;;110593;1251;41194;-73
2022/08/23 09:33:37;;;;;;;6.20;2.10;;;;;39.30;97101.00;;;;110601;1251;41161;-74
2022/08/23 09:36:18;;;;;;;4.70;1.90;;;;;39.44;97103.80;;;;110600;1250;41273;-74
2022/08/23 09:38:55;;;;;;;7.90;2.00;;;;;39.70;97100.80;;;;110545;1250;42161;-73
2022/08/23 09:41:31;;;;;;;5.60;1.80;;;;;39.80;97099.20;;;;110621;1250;42116;-74
2022/08/23 09:44:01;;;;;;;7.50;2.00;;;;;40.10;97096.80;;;;110708;1250;42029;-75
2022/08/23 09:46:37;;;;;;;6.00;2.10;;;;;40.30;97092.80;;;;110591;1253;41172;-74
2022/08/23 09:49:27;;;;;;;6.40;2.20;;;;;40.20;97095.20;;;;110558;1251;41160;-74
2022/08/23 09:52:34;;;;;;;6.40;2.10;;;;;40.00;97097.20;;;;110635;1251;42376;-73
2022/08/23 09:55:11;;;;;;;6.50;1.60;;;;;39.70;97100.80;;;;110575;1251;41131;-72
2022/08/23 09:57:45;;;;;;;6.20;2.20;;;;;39.66;97103.60;;;;110543;1252;41723;-73
2022/08/23 10:00:16;;;;;;;6.70;1.80;;;;;38.94;97103.00;;;;110846;1250;41431;-75
2022/08/23 10:02:50;;;;;;;5.10;1.80;;;;;38.54;97106.80;;;;110744;1251;41186;-74
2022/08/23 10:05:38;;;;;;;7.30;2.10;;;;;38.80;97108.40;;;;110582;1252;42072;-73
2022/08/23 10:08:22;;;;;;;5.20;1.70;;;;;37.48;97109.20;;;;110581;1252;41268;-74
2022/08/23 10:10:52;;;;;;;6.90;1.70;;;;;37.84;97107.20;;;;110601;1251;41134;-73
2022/08/23 10:13:29;;;;;;;6.70;1.70;;;;;37.80;97111.00;;;;110770;1251;41165;-73
2022/08/23 10:15:58;;;;;;;6.50;2.00;;;;;37.90;97112.80;;;;110663;1250;41681;-72
2022/08/23 10:18:49;;;;;;;8.40;2.50;;;;;38.14;97112.20;;;;110631;1250;42077;-73
2022/08/23 10:22:14;;;;;;;8.60;2.40;;;;;38.74;97107.80;;;;110828;1250;41599;-73
2022/08/23 10:25:11;;;;;;;8.00;1.90;;;;;38.52;97104.80;;;;110404;1252;41485;-73
2022/08/23 10:30:58;;;;;;;9.80;2.20;;;;;37.58;97107.60;;;;110674;1251;41259;-73
2022/08/23 10:33:46;;;;;;;8.00;2.30;;;;;36.98;97108.40;;;;110606;1252;41253;-73
2022/08/23 10:36:21;;;;;;;8.20;1.90;;;;;36.80;97114.60;;;;110640;1250;41157;-73
2022/08/23 10:38:55;;;;;;;6.30;2.00;;;;;36.70;97116.80;;;;110643;1251;41323;-73
2022/08/23 10:41:47;;;;;;;7.30;2.10;;;;;36.90;97107.60;;;;110603;1251;41147;-73
2022/08/23 10:44:34;;;;;;;5.40;2.00;;;;;37.40;97105.60;;;;110554;1251;41161;-73
2022/08/23 10:47:33;;;;;;;8.40;2.00;;;;;37.80;97105.20;;;;110672;1250;41157;-73
2022/08/23 10:50:21;;;;;;;10.80;2.00;;;;;37.72;97098.40;;;;110635;1250;41158;-73
2022/08/23 10:53:36;;;;;;;7.20;1.80;;;;;38.06;97095.80;;;;110457;1252;41246;-72
2022/08/23 10:56:06;;;;;;;5.30;1.60;;;;;38.54;97095.20;;;;110227;1256;41271;-73
2022/08/23 10:58:45;;;;;;;6.60;1.90;;;;;37.32;97092.40;;;;110493;1254;41151;-74
2022/08/23 11:01:52;;;;;;;9.70;1.90;;;;;37.90;97086.60;;;;110521;1252;41736;-73
2022/08/23 11:04:33;;;;;;;7.70;2.20;;;;;38.20;97086.80;;;;110569;1252;41269;-73
2022/08/23 11:07:26;;;;;;;7.30;1.90;;;;;38.40;97085.40;;;;110505;1253;41144;-73
2022/08/23 11:10:04;;;;;;;4.10;1.60;;;;;38.00;97084.60;;;;110523;1253;41157;-73
2022/08/23 11:12:50;;;;;;;7.70;2.20;;;;;36.98;97089.20;;;;110573;1253;41975;-73
2022/08/23 11:16:05;;;;;;;6.60;2.10;;;;;36.72;97093.60;;;;110556;1251;42533;-73
2022/08/23 11:18:34;;;;;;;8.10;1.80;;;;;37.00;97081.20;;;;110550;1252;41156;-73
2022/08/23 11:21:06;;;;;;;6.50;2.10;;;;;37.60;97074.00;;;;110546;1251;41176;-73
2022/08/23 11:23:53;;;;;;;4.50;2.10;;;;;38.00;97066.40;;;;110586;1251;41131;-72
2022/08/23 11:26:22;;;;;;;6.10;1.90;;;;;37.70;97068.20;;;;110612;1251;42084;-73
2022/08/23 11:29:09;;;;;;;7.20;2.30;;;;;37.86;97065.80;;;;110536;1250;43178;-72
2022/08/23 11:31:57;;;;;;;6.50;2.30;;;;;38.64;97057.80;;;;110552;1251;41552;-73
2022/08/23 11:34:42;;;;;;;4.90;1.70;;;;;39.28;97053.20;;;;110615;1251;41163;-73
2022/08/23 11:37:23;;;;;;;4.80;1.90;;;;;39.96;97048.80;;;;110605;1250;41703;-73
2022/08/23 11:39:56;;;;;;;7.10;1.80;;;;;40.38;97045.60;;;;110619;1251;41187;-73
2022/08/23 11:42:39;;;;;;;6.80;1.80;;;;;40.84;97033.20;;;;110668;1251;41699;-73
2022/08/23 11:45:25;;;;;;;7.40;2.00;;;;;41.02;97032.00;;;;110712;1249;41252;-73
2022/08/23 11:48:07;;;;;;;6.50;2.00;;;;;41.44;97032.20;;;;110689;1251;41256;-72
2022/08/23 11:50:51;;;;;;;9.20;2.40;;;;;41.70;97028.40;;;;110702;1251;42133;-72
2022/08/23 11:53:40;;;;;;;7.00;2.40;;;;;41.78;97027.20;;;;110669;1251;42247;-73
2022/08/23 11:56:15;;;;;;;6.50;2.00;;;;;41.80;97027.60;;;;110565;1251;41185;-72
2022/08/23 11:58:49;;;;;;;5.40;1.70;;;;;41.70;97028.60;;;;110586;1251;41247;-72
2022/08/23 12:01:30;;;;;;;6.90;2.00;;;;;42.00;97020.60;;;;110672;1251;41381;-73
2022/08/23 12:04:09;;;;;;;9.80;2.10;;;;;42.22;97017.00;;;;110748;1251;41256;-73
2022/08/23 12:06:48;;;;;;;;;;;;;42.20;97013.60;;;;110830;1250;41259;-72
2022/08/23 12:09:21;;;;;;;7.50;3.20;;;;;42.00;97019.20;;;;110783;1249;41256;-73
2022/08/23 12:11:55;;;;;;;7.70;3.80;;;;;42.00;97015.80;;;;110786;1249;41147;-73
2022/08/23 12:14:30;;;;;;;10.40;2.60;;;;;42.30;97013.20;;;;110629;1250;41149;-73
2022/08/23 12:17:25;;;;;;;9.40;2.90;;;;;42.40;97012.60;;;;110604;1251;41273;-73
2022/08/23 12:20:06;;;;;;;6.80;2.10;;;;;42.20;97007.80;;;;110802;1251;41144;-73
2022/08/23 12:22:59;;;;;;;13.50;5.40;;;;;41.64;97010.00;;;;110569;1251;42189;-73
2022/08/23 12:25:30;;;;;;;11.00;3.60;;;;;40.90;97012.80;;;;110583;1250;41638;-73
2022/08/23 12:28:33;;;;;;;10.50;2.30;;;;;39.70;97021.40;;;;110557;1251;42231;-74
2022/08/23 12:31:16;;;;;;;10.80;2.20;;;;;38.08;97025.80;;;;110525;1252;41265;-74
2022/08/23 12:34:11;;;;;;;10.40;4.40;;;;;39.00;97023.00;;;;110633;1249;41648;-73
2022/08/23 12:36:54;;;;;;;12.50;3.60;;;;;39.36;97031.20;;;;110717;1251;41264;-71
2022/08/23 12:39:38;;;;;;;6.60;2.00;;;;;40.06;97027.00;;;;110600;1250;42104;-73
2022/08/23 12:42:16;;;;;;;12.80;4.20;;;;;40.68;97025.40;;;;110855;1250;42591;-72
2022/08/23 12:45:00;;;;;;;9.30;2.50;;;;;41.32;97019.20;;;;110539;1250;41160;-71
2022/08/23 12:47:28;;;;;;;8.80;2.00;;;;;40.16;97015.40;;;;110673;1250;41148;-74
2022/08/23 12:49:59;;;;;;;9.00;2.30;;;;;40.02;97017.40;;;;110691;1250;41252;-73
2022/08/23 12:52:33;;;;;;;10.90;3.80;;;;;39.76;97014.80;;;;110949;1249;41153;-73
2022/08/23 12:55:02;;;;;;;9.20;3.70;;;;;40.14;97012.20;;;;110629;1250;41264;-73
2022/08/23 12:57:34;;;;;;;11.10;3.20;;;;;39.78;97007.40;;;;110786;1250;42421;-73
2022/08/23 13:00:16;;;;;;;8.60;2.40;;;;;39.90;97005.00;;;;110885;1249;41149;-74
2022/08/23 13:03:00;;;;;;;8.60;2.10;;;;;40.38;97001.20;;;;110843;1248;41825;-74
2022/08/23 13:06:00;;;;;;;9.40;2.30;;;;;40.12;97009.80;;;;110655;1250;41261;-74
2022/08/23 13:08:39;;;;;;;7.80;2.00;;;;;38.18;97013.60;;;;110880;1250;41154;-73
2022/08/23 13:11:08;;;;;;;5.10;1.90;;;;;37.68;97018.20;;;;110822;1249;41161;-72